Time;durP1;ratioP1;P1;durP2;ratioP2;P2;SDS_P1;SDS_P2;PMS_P1;PMS_P2;Temp;Humidity;BMP_temperature;BMP_pressure;BME280_temperature;BME280_humidity;BME280_pressure;Samples;Min_cycle;Max_cycle;Signal;HPM_P1;HPM_P2
2022/09/28 00:00:06;;;;;;;2.30;1.87;;;;;;;12.54;70.67;97890.81;4944433;28;20213;-76
2022/09/28 00:02:37;;;;;;;2.88;1.70;;;;;;;12.56;70.91;97890.66;4945654;29;20216;-77
2022/09/28 00:05:03;;;;;;;8.30;2.40;;;;;;;12.59;70.62;97898.25;4945431;29;20236;-75
2022/09/28 00:07:28;;;;;;;4.40;1.60;;;;;;;12.60;70.43;97890.19;4945379;29;20240;-77
2022/09/28 00:09:54;;;;;;;1.83;1.63;;;;;;;12.65;70.12;97891.56;4943870;28;20212;-75
2022/09/28 00:12:20;;;;;;;4.93;1.93;;;;;;;12.70;69.88;97876.13;4944554;29;20212;-75
2022/09/28 00:14:46;;;;;;;2.25;2.03;;;;;;;12.74;69.83;97869.53;4940751;28;20220;-77
2022/09/28 00:17:11;;;;;;;2.60;1.20;;;;;;;12.78;69.30;97852.47;4939818;28;20201;-77
2022/09/28 00:19:41;;;;;;;6.23;1.57;;;;;;;12.82;68.96;97856.44;4943164;29;20219;-78
2022/09/28 00:22:07;;;;;;;3.83;1.98;;;;;;;12.82;69.16;97857.25;4943043;28;20236;-77
2022/09/28 00:24:32;;;;;;;3.27;1.33;;;;;;;12.81;68.88;97850.34;4942926;28;20268;-77
2022/09/28 00:27:00;;;;;;;8.73;2.50;;;;;;;12.86;68.87;97857.78;4940064;29;22931;-75
2022/09/28 00:29:28;;;;;;;7.85;1.60;;;;;;;12.86;68.84;97854.31;4942654;28;20213;-77
2022/09/28 00:32:01;;;;;;;3.00;1.42;;;;;;;12.88;68.85;97847.94;4944601;29;20685;-77
2022/09/28 00:34:30;;;;;;;7.13;1.88;;;;;;;12.94;68.68;97839.38;4946451;28;20493;-75
2022/09/28 00:36:55;;;;;;;2.40;1.23;;;;;;;12.96;68.63;97844.50;4940694;29;20466;-75
2022/09/28 00:39:21;;;;;;;1.97;1.47;;;;;;;12.99;68.52;97844.19;4944073;29;20229;-77
2022/09/28 00:41:46;;;;;;;7.33;1.63;;;;;;;12.98;68.33;97830.16;4943553;29;20329;-77
2022/09/28 00:44:21;;;;;;;9.63;2.07;;;;;;;12.99;68.30;97833.66;4947154;28;20250;-75
2022/09/28 00:46:49;;;;;;;2.70;1.35;;;;;;;12.97;68.36;97818.00;4944163;29;20204;-77
2022/09/28 00:49:17;;;;;;;6.03;1.83;;;;;;;12.97;68.36;97815.34;4941751;28;20201;-77
2022/09/28 00:51:46;;;;;;;8.25;2.60;;;;;;;12.97;68.39;97812.72;4942978;29;20213;-75
2022/09/28 00:54:13;;;;;;;3.50;1.38;;;;;;;12.97;68.27;97802.19;4945057;29;20227;-75
2022/09/28 00:56:42;;;;;;;3.58;1.58;;;;;;;12.99;68.25;97794.13;4945300;29;20216;-76
2022/09/28 00:59:08;;;;;;;5.63;1.45;;;;;;;13.00;68.14;97791.31;4943641;29;20232;-78
2022/09/28 01:01:34;;;;;;;3.10;1.23;;;;;;;13.00;68.18;97795.75;4945535;29;20212;-77
2022/09/28 01:04:01;;;;;;;1.83;1.10;;;;;;;12.99;68.17;97788.84;4940661;29;20235;-77
2022/09/28 01:06:32;;;;;;;7.93;1.70;;;;;;;12.99;68.12;97778.31;4959711;28;20205;-75
2022/09/28 01:09:01;;;;;;;4.07;1.60;;;;;;;12.99;68.12;97780.94;4943545;29;20213;-77
2022/09/28 01:11:30;;;;;;;6.95;2.25;;;;;;;13.00;67.96;97783.41;4942468;29;20212;-76
2022/09/28 01:13:57;;;;;;;4.72;1.40;;;;;;;12.99;67.90;97781.78;4943045;29;20272;-75
2022/09/28 01:16:53;;;;;;;1.88;1.40;;;;;;;12.98;67.87;97764.28;4942537;28;20391;-75
2022/09/28 01:20:04;;;;;;;3.63;1.70;;;;;;;12.98;68.10;97745.84;4940530;29;20219;-77
2022/09/28 01:22:33;;;;;;;2.13;1.40;;;;;;;12.97;68.18;97757.38;4960455;28;20197;-78
2022/09/28 01:24:59;;;;;;;1.88;1.75;;;;;;;12.97;68.13;97756.56;4946056;29;20233;-77
2022/09/28 01:27:36;;;;;;;1.40;1.13;;;;;;;12.95;68.08;97748.78;4941481;28;20219;-78
2022/09/28 01:30:15;;;;;;;3.50;1.10;;;;;;;12.96;68.24;97732.00;4937885;28;20219;-77
2022/09/28 01:33:02;;;;;;;1.70;1.15;;;;;;;12.96;68.32;97733.81;4957421;28;20201;-77
2022/09/28 01:35:39;;;;;;;1.75;1.20;;;;;;;12.94;68.23;97725.25;4943611;28;21201;-77
2022/09/28 01:38:13;;;;;;;3.50;1.30;;;;;;;12.92;68.35;97721.94;4950714;28;20208;-76
2022/09/28 01:40:40;;;;;;;4.50;1.20;;;;;;;12.90;68.31;97722.09;4939624;28;20360;-78
2022/09/28 01:43:18;;;;;;;2.83;1.48;;;;;;;12.89;68.46;97712.53;4939155;28;20232;-78
2022/09/28 01:45:47;;;;;;;4.60;1.70;;;;;;;12.89;68.39;97720.44;4940778;28;20213;-77
2022/09/28 01:48:39;;;;;;;4.20;1.10;;;;;;;12.89;68.42;97712.53;4958693;28;20212;-78
2022/09/28 01:51:13;;;;;;;2.63;1.55;;;;;;;12.87;68.58;97711.03;4954074;28;20833;-76
2022/09/28 01:53:47;;;;;;;1.30;1.20;;;;;;;12.86;68.62;97704.97;4940529;28;20223;-75
2022/09/28 01:56:27;;;;;;;2.08;1.08;;;;;;;12.85;68.55;97711.19;4942594;28;20208;-78
2022/09/28 01:58:58;;;;;;;1.65;1.25;;;;;;;12.84;68.72;97702.47;4943944;28;20658;-76
2022/09/28 02:01:30;;;;;;;1.42;1.10;;;;;;;12.82;68.91;97699.16;4938044;28;20228;-75
2022/09/28 02:04:11;;;;;;;3.17;1.83;;;;;;;12.82;68.82;97687.81;4944452;29;20229;-77
2022/09/28 02:06:57;;;;;;;1.70;1.42;;;;;;;12.79;69.20;97674.94;4941639;28;20205;-78
2022/09/28 02:09:37;;;;;;;4.30;1.60;;;;;;;12.75;69.32;97687.63;4938091;28;20217;-75
2022/09/28 02:12:11;;;;;;;2.05;1.20;;;;;;;12.72;69.34;97693.22;4931305;28;20239;-76
2022/09/28 02:14:39;;;;;;;2.97;1.05;;;;;;;12.72;69.48;97700.28;4940859;28;20228;-76
2022/09/28 02:17:05;;;;;;;2.65;1.20;;;;;;;12.71;69.56;97693.34;4942854;28;20244;-77
2022/09/28 02:19:32;;;;;;;3.47;1.10;;;;;;;12.69;69.50;97679.50;4943480;29;20674;-76
2022/09/28 02:22:00;;;;;;;1.80;1.13;;;;;;;12.66;69.68;97682.47;4941829;28;20762;-77
2022/09/28 02:24:38;;;;;;;1.80;1.20;;;;;;;12.61;69.81;97673.25;4944021;29;20225;-78
2022/09/28 02:27:22;;;;;;;6.50;1.80;;;;;;;12.59;70.09;97666.50;4939207;28;20701;-78
2022/09/28 02:29:48;;;;;;;2.78;1.45;;;;;;;12.56;70.10;97657.09;4941473;29;20205;-78
2022/09/28 02:32:15;;;;;;;2.50;1.10;;;;;;;12.55;70.38;97659.88;4944541;28;20836;-78
2022/09/28 02:34:42;;;;;;;4.28;2.45;;;;;;;12.53;70.45;97651.28;4944998;29;20216;-76
2022/09/28 02:37:08;;;;;;;2.08;1.35;;;;;;;12.51;70.47;97642.75;4940719;28;20229;-76
2022/09/28 02:39:33;;;;;;;1.27;1.00;;;;;;;12.50;70.27;97631.41;4941734;28;20201;-78
2022/09/28 02:42:19;;;;;;;1.90;1.07;;;;;;;12.49;70.39;97607.84;4945604;28;20197;-77
2022/09/28 02:45:06;;;;;;;2.40;1.20;;;;;;;12.46;70.44;97630.03;4952564;28;20713;-75
2022/09/28 02:48:10;;;;;;;3.65;1.05;;;;;;;12.43;70.82;97635.63;4935702;23;20272;-78
2022/09/28 02:50:59;;;;;;;1.88;0.80;;;;;;;12.37;70.98;97637.09;4869647;29;20701;-77
2022/09/28 02:53:40;;;;;;;4.40;1.00;;;;;;;12.36;71.10;97631.97;4923970;29;20194;-77
2022/09/28 02:56:29;;;;;;;1.52;1.10;;;;;;;12.34;71.32;97634.78;4937735;28;20577;-77
2022/09/28 02:59:15;;;;;;;2.03;0.90;;;;;;;12.31;71.50;97628.97;4918060;29;20213;-77
2022/09/28 03:01:51;;;;;;;1.55;0.80;;;;;;;12.27;71.54;97632.91;4915364;29;20210;-77
2022/09/28 03:04:37;;;;;;;2.65;1.00;;;;;;;12.25;71.79;97633.06;4903715;29;20234;-77
2022/09/28 03:07:20;;;;;;;1.60;0.90;;;;;;;12.24;71.84;97626.16;4885844;29;20233;-77
2022/09/28 03:09:58;;;;;;;0.80;0.70;;;;;;;12.22;71.96;97614.97;4903714;29;20240;-77
2022/09/28 03:12:28;;;;;;;1.17;0.75;;;;;;;12.21;72.01;97612.50;4899087;29;20205;-77
2022/09/28 03:15:19;;;;;;;1.70;1.60;;;;;;;12.20;72.09;97618.72;4901333;29;20213;-77
2022/09/28 03:17:45;;;;;;;1.00;0.90;;;;;;;12.18;71.97;97635.50;4917684;29;20266;-77
2022/09/28 03:20:12;;;;;;;2.25;0.80;;;;;;;12.18;72.07;97637.31;4915170;29;20214;-77
2022/09/28 03:22:38;;;;;;;4.15;0.80;;;;;;;12.18;71.95;97650.47;4899428;29;20234;-77
2022/09/28 03:25:05;;;;;;;0.73;0.73;;;;;;;12.17;72.26;97641.75;4900065;29;20795;-77
2022/09/28 03:27:30;;;;;;;1.00;0.70;;;;;;;12.19;72.38;97636.34;4913908;29;23019;-77
2022/09/28 03:29:56;;;;;;;0.80;0.80;;;;;;;12.21;72.16;97625.66;4891586;29;20249;-77
2022/09/28 03:32:21;;;;;;;1.67;1.57;;;;;;;12.23;72.08;97631.56;4901956;29;20209;-77
2022/09/28 03:34:47;;;;;;;1.37;0.80;;;;;;;12.24;72.17;97617.44;4898821;29;20931;-77
2022/09/28 03:37:12;;;;;;;1.00;0.80;;;;;;;12.26;72.14;97610.19;4897267;29;20702;-77
2022/09/28 03:39:38;;;;;;;1.50;0.80;;;;;;;12.28;72.23;97601.16;4894060;29;20214;-77
2022/09/28 03:42:04;;;;;;;1.03;0.90;;;;;;;12.30;72.15;97588.66;4909549;29;20228;-77
2022/09/28 03:44:33;;;;;;;0.90;0.75;;;;;;;12.33;71.97;97582.25;4907718;29;20229;-77
2022/09/28 03:46:58;;;;;;;1.10;0.90;;;;;;;12.33;72.14;97572.56;4895565;29;20261;-77
2022/09/28 03:49:24;;;;;;;1.00;0.90;;;;;;;12.35;72.10;97575.03;4890883;29;20205;-77
2022/09/28 03:51:49;;;;;;;1.67;1.10;;;;;;;12.36;72.16;97597.75;4896384;29;20236;-77
2022/09/28 03:54:14;;;;;;;3.33;1.40;;;;;;;12.35;72.14;97594.28;4901694;29;20823;-77
2022/09/28 03:56:40;;;;;;;1.73;1.40;;;;;;;12.37;72.25;97594.97;4899112;29;20329;-77
2022/09/28 03:59:06;;;;;;;1.43;1.00;;;;;;;12.40;72.38;97599.09;4902008;29;20245;-77
2022/09/28 04:01:31;;;;;;;1.83;1.30;;;;;;;12.38;72.33;97607.13;4916036;29;20222;-77
2022/09/28 04:03:57;;;;;;;1.67;1.00;;;;;;;12.37;72.48;97605.50;4900185;29;20377;-77
2022/09/28 04:06:24;;;;;;;1.55;0.90;;;;;;;12.38;72.48;97588.69;4913318;29;20304;-77
2022/09/28 04:08:49;;;;;;;2.38;1.00;;;;;;;12.39;72.33;97597.41;4919604;29;20272;-77
2022/09/28 04:11:19;;;;;;;1.83;1.67;;;;;;;12.42;72.53;97593.66;4903291;29;20195;-77
2022/09/28 04:13:48;;;;;;;2.42;1.60;;;;;;;12.41;72.55;97584.94;4902390;29;20237;-77
2022/09/28 04:16:17;;;;;;;2.55;1.98;;;;;;;12.39;72.99;97585.09;4920146;29;20209;-77
2022/09/28 04:18:50;;;;;;;1.48;1.33;;;;;;;12.38;72.97;97582.63;4922598;29;20225;-77
2022/09/28 04:21:36;;;;;;;2.35;1.10;;;;;;;12.37;73.16;97583.63;4905766;29;21396;-77
2022/09/28 04:24:07;;;;;;;2.10;1.13;;;;;;;12.36;73.23;97584.59;4904290;29;20226;-77
2022/09/28 04:26:34;;;;;;;0.90;0.65;;;;;;;12.36;73.27;97588.03;4902383;29;20309;-77
2022/09/28 04:29:15;;;;;;;1.47;0.70;;;;;;;12.36;73.47;97590.66;4902958;29;20288;-77
2022/09/28 04:31:50;;;;;;;1.33;0.80;;;;;;;12.35;73.58;97586.41;4917291;29;20706;-77
2022/09/28 04:34:21;;;;;;;2.17;0.90;;;;;;;12.37;73.68;97591.50;4913680;29;20194;-77
2022/09/28 04:36:48;;;;;;;1.40;0.98;;;;;;;12.34;73.77;97584.75;4902683;29;20599;-77
2022/09/28 04:39:15;;;;;;;2.50;0.80;;;;;;;12.36;73.73;97568.78;4904929;29;20220;-77
2022/09/28 04:41:47;;;;;;;3.92;0.80;;;;;;;12.37;73.88;97570.44;4918158;29;20207;-77
2022/09/28 04:44:12;;;;;;;2.47;0.93;;;;;;;12.34;74.09;97568.97;4914968;29;20286;-77
2022/09/28 04:46:38;;;;;;;1.03;0.90;;;;;;;12.35;73.98;97580.31;4904314;29;20230;-77
2022/09/28 04:49:23;;;;;;;1.23;1.05;;;;;;;12.34;74.25;97589.16;4905063;29;20228;-77
2022/09/28 04:51:51;;;;;;;5.10;0.90;;;;;;;12.35;74.22;97590.84;4904242;29;20194;-77
2022/09/28 04:54:17;;;;;;;0.90;0.80;;;;;;;12.34;74.29;97584.75;4899428;29;20206;-77
2022/09/28 04:56:43;;;;;;;0.70;0.60;;;;;;;12.35;74.43;97580.31;4903823;29;20704;-77
2022/09/28 04:59:08;;;;;;;1.93;1.17;;;;;;;12.35;74.38;97580.31;4906027;29;20206;-77
2022/09/28 05:01:35;;;;;;;1.02;0.90;;;;;;;12.34;74.44;97589.16;4892920;29;20216;-77
2022/09/28 05:04:20;;;;;;;2.00;1.90;;;;;;;12.34;74.40;97600.56;4903138;29;20384;-78
2022/09/28 05:06:54;;;;;;;0.77;0.70;;;;;;;12.36;74.50;97600.38;4895191;29;20607;-77
2022/09/28 05:09:20;;;;;;;1.40;0.70;;;;;;;12.37;74.49;97604.69;4902092;29;20225;-77
2022/09/28 05:11:48;;;;;;;4.13;0.82;;;;;;;12.38;74.54;97604.50;4895791;29;20646;-77
2022/09/28 05:14:16;;;;;;;1.58;0.90;;;;;;;12.39;74.51;97611.44;4900650;29;20190;-77
2022/09/28 05:16:41;;;;;;;1.63;1.00;;;;;;;12.41;74.60;97611.25;4916950;29;20222;-77
2022/09/28 05:19:25;;;;;;;1.95;1.23;;;;;;;12.40;74.63;97615.72;4900925;29;21242;-77
2022/09/28 05:21:53;;;;;;;2.75;1.50;;;;;;;12.40;74.73;97613.06;4913413;29;20584;-77
2022/09/28 05:24:19;;;;;;;1.67;1.00;;;;;;;12.43;74.74;97626.91;4896915;29;20711;-78
2022/09/28 05:26:49;;;;;;;1.40;0.82;;;;;;;12.42;74.85;97622.59;4900272;29;20250;-77
2022/09/28 05:29:14;;;;;;;1.50;1.40;;;;;;;12.42;74.89;97622.59;4895774;29;20345;-77
2022/09/28 05:31:55;;;;;;;1.45;0.70;;;;;;;12.36;75.17;97634.59;4898534;29;20250;-77
2022/09/28 05:34:39;;;;;;;1.33;0.90;;;;;;;12.39;75.58;97636.91;4898068;29;20573;-77
2022/09/28 05:37:05;;;;;;;1.77;0.80;;;;;;;12.39;76.04;97650.06;4893753;29;20230;-77
2022/09/28 05:39:30;;;;;;;1.43;0.70;;;;;;;12.37;76.13;97657.34;4898041;29;20706;-78
2022/09/28 05:41:56;;;;;;;1.43;1.00;;;;;;;12.38;76.05;97653.72;4892951;29;20214;-78
2022/09/28 05:44:23;;;;;;;1.88;1.35;;;;;;;12.37;76.01;97654.69;4910505;29;20333;-77
2022/09/28 05:46:51;;;;;;;1.02;0.90;;;;;;;12.36;75.90;97650.41;4897813;29;20238;-77
2022/09/28 05:49:17;;;;;;;3.60;0.95;;;;;;;12.37;75.94;97660.78;4913650;29;20803;-77
2022/09/28 05:51:42;;;;;;;1.30;0.97;;;;;;;12.38;76.02;97664.25;4892844;29;20214;-78
2022/09/28 05:54:08;;;;;;;3.43;1.17;;;;;;;12.37;76.01;97666.06;4910521;29;20205;-77
2022/09/28 05:56:37;;;;;;;1.25;0.95;;;;;;;12.36;76.10;97669.66;4895206;29;20274;-77
2022/09/28 05:59:05;;;;;;;2.10;1.27;;;;;;;12.34;76.31;97668.16;4897496;29;20229;-78
2022/09/28 06:01:30;;;;;;;1.83;1.00;;;;;;;12.32;76.44;97670.13;4897825;29;20359;-78
2022/09/28 06:03:57;;;;;;;2.35;0.88;;;;;;;12.30;76.66;97667.66;4897038;29;20711;-78
2022/09/28 06:06:23;;;;;;;2.37;1.00;;;;;;;12.31;76.56;97666.69;4898807;29;20206;-78
2022/09/28 06:08:49;;;;;;;3.07;1.70;;;;;;;12.31;76.71;97668.47;4897915;29;20836;-77
2022/09/28 06:11:40;;;;;;;1.40;1.10;;;;;;;12.31;76.58;97664.06;4896410;29;20228;-78
2022/09/28 06:14:19;;;;;;;0.90;0.80;;;;;;;12.30;76.73;97677.34;4900046;29;20328;-78
2022/09/28 06:16:44;;;;;;;1.67;1.10;;;;;;;12.30;76.78;97680.00;4899952;29;20230;-78
2022/09/28 06:19:13;;;;;;;1.98;0.80;;;;;;;12.33;77.15;97682.31;4898839;29;20293;-78
2022/09/28 06:21:58;;;;;;;1.45;1.00;;;;;;;12.29;76.87;97687.06;4899371;29;21249;-78
2022/09/28 06:24:23;;;;;;;1.60;0.93;;;;;;;12.29;77.05;97686.25;4898884;29;20238;-77
2022/09/28 06:26:49;;;;;;;0.97;0.87;;;;;;;12.29;77.15;97686.25;4891753;29;21234;-78
2022/09/28 06:29:18;;;;;;;5.50;1.00;;;;;;;12.27;77.41;97694.28;4902514;29;20446;-78
2022/09/28 06:31:44;;;;;;;3.38;1.00;;;;;;;12.27;77.32;97704.81;4893469;29;20329;-78
2022/09/28 06:34:11;;;;;;;2.05;1.10;;;;;;;12.31;77.59;97706.19;4894573;29;20574;-78
2022/09/28 06:36:37;;;;;;;0.85;0.80;;;;;;;12.34;77.84;97711.13;4895210;29;20240;-78
2022/09/28 06:39:03;;;;;;;0.95;0.85;;;;;;;12.35;77.93;97714.56;4899729;29;20199;-78
2022/09/28 06:41:29;;;;;;;1.27;0.80;;;;;;;12.36;77.84;97703.88;4895449;29;20221;-78
2022/09/28 06:43:58;;;;;;;1.45;0.98;;;;;;;12.38;77.82;97715.06;4893219;29;20921;-77
2022/09/28 06:46:42;;;;;;;2.00;0.70;;;;;;;12.38;77.85;97709.00;4892092;29;20268;-78
2022/09/28 06:49:47;;;;;;;1.20;1.10;;;;;;;12.39;77.86;97714.13;4884117;29;20214;-78
2022/09/28 06:52:31;;;;;;;2.33;1.38;;;;;;;12.39;77.83;97727.28;4895087;29;20223;-77
2022/09/28 06:55:02;;;;;;;2.40;1.00;;;;;;;12.42;77.67;97733.19;4908841;29;20325;-77
2022/09/28 06:57:37;;;;;;;3.08;1.50;;;;;;;12.43;77.58;97730.41;4894052;29;20328;-78
2022/09/28 07:00:03;;;;;;;3.80;2.20;;;;;;;12.46;77.47;97739.81;4900757;29;20292;-78
2022/09/28 07:02:30;;;;;;;2.67;1.87;;;;;;;12.48;77.48;97740.50;4894571;29;20477;-78
2022/09/28 07:05:12;;;;;;;3.05;2.50;;;;;;;12.49;77.40;97739.50;4888554;29;20226;-78
2022/09/28 07:08:07;;;;;;;3.33;2.90;;;;;;;12.49;77.18;97735.06;4891580;29;20277;-78
2022/09/28 07:11:05;;;;;;;3.05;2.60;;;;;;;12.51;77.20;97735.75;4886521;29;20232;-78
2022/09/28 07:13:43;;;;;;;5.63;2.33;;;;;;;12.52;77.15;97753.19;4896560;29;20292;-78
2022/09/28 07:16:11;;;;;;;3.67;1.80;;;;;;;12.54;77.14;97747.78;4894394;29;20381;-78
2022/09/28 07:18:36;;;;;;;1.73;1.25;;;;;;;12.57;77.10;97752.72;4892253;29;20234;-79
2022/09/28 07:21:03;;;;;;;2.33;1.50;;;;;;;12.59;76.80;97750.75;4895277;29;20245;-78
2022/09/28 07:23:29;;;;;;;2.15;0.95;;;;;;;12.62;76.73;97748.63;4908001;29;20222;-79
2022/09/28 07:26:21;;;;;;;3.17;1.65;;;;;;;12.66;76.73;97745.69;4881275;29;20228;-78
2022/09/28 07:29:16;;;;;;;1.23;0.95;;;;;;;12.69;76.51;97756.75;4897007;29;20210;-78
2022/09/28 07:32:02;;;;;;;2.65;1.77;;;;;;;12.72;76.59;97756.44;4891899;29;20681;-79
2022/09/28 07:34:27;;;;;;;6.40;3.67;;;;;;;12.74;76.54;97756.25;4894750;29;20201;-79
2022/09/28 07:37:07;;;;;;;5.32;3.75;;;;;;;12.74;76.35;97758.91;4895652;29;20233;-78
2022/09/28 07:41:10;;;;;;;3.22;2.92;;;;;;;12.75;76.41;97768.47;4912428;29;20261;-78
2022/09/28 07:42:18;;;;;;;3.35;2.40;;;;;;;12.77;76.43;97774.38;4896580;29;20256;-78
2022/09/28 07:44:44;;;;;;;3.10;1.83;;;;;;;12.79;76.21;97778.53;4892607;29;20325;-78
2022/09/28 07:47:10;;;;;;;1.50;1.35;;;;;;;12.79;76.29;97777.69;4894361;29;20751;-78
2022/09/28 07:49:56;;;;;;;3.25;1.30;;;;;;;12.78;76.26;97782.16;4896196;29;20206;-78
2022/09/28 07:52:37;;;;;;;3.20;1.50;;;;;;;12.80;76.24;97780.19;4892075;29;20202;-78
2022/09/28 07:55:13;;;;;;;1.90;1.55;;;;;;;12.80;75.95;97788.09;4903184;29;20201;-78
2022/09/28 07:58:00;;;;;;;1.85;1.17;;;;;;;12.79;76.07;97796.16;4895508;29;20265;-78
2022/09/28 08:00:39;;;;;;;2.75;1.25;;;;;;;12.79;76.24;97794.31;4899014;29;20193;-78
2022/09/28 08:03:04;;;;;;;1.63;1.20;;;;;;;12.81;76.20;97808.19;4897916;29;20214;-78
2022/09/28 08:05:34;;;;;;;1.35;1.20;;;;;;;12.83;76.09;97806.22;4895361;29;20226;-76
2022/09/28 08:08:01;;;;;;;2.08;1.27;;;;;;;12.85;76.19;97811.31;4892996;29;20317;-76
2022/09/28 08:10:27;;;;;;;3.33;2.28;;;;;;;12.86;75.97;97817.44;4892774;29;20245;-76
2022/09/28 08:13:19;;;;;;;3.70;1.98;;;;;;;12.86;75.97;97826.16;4895104;29;20544;-78
2022/09/28 08:16:02;;;;;;;3.65;2.22;;;;;;;12.86;76.07;97815.63;4895228;29;20262;-78
2022/09/28 08:18:50;;;;;;;2.17;1.80;;;;;;;12.86;76.09;97820.91;4889367;29;20211;-78
2022/09/28 08:24:03;;;;;;;3.03;1.50;;;;;;;12.89;76.00;97825.84;4905921;29;20714;-78
2022/09/28 08:26:29;;;;;;;2.10;1.90;;;;;;;12.92;75.92;97829.97;4894558;29;20216;-78
2022/09/28 08:28:54;;;;;;;2.70;1.53;;;;;;;12.95;75.82;97833.13;4895213;29;20458;-78
2022/09/28 08:31:38;;;;;;;7.10;4.28;;;;;;;12.98;75.75;97830.16;4896174;29;20681;-78
2022/09/28 08:34:09;;;;;;;5.30;3.40;;;;;;;12.96;75.81;97832.16;4904790;29;20671;-78
2022/09/28 08:36:57;;;;;;;2.60;1.75;;;;;;;12.97;75.74;97839.06;4909821;29;20233;-78
2022/09/28 08:39:49;;;;;;;6.20;2.20;;;;;;;12.95;75.92;97835.75;4725672;29;5002365;-78
2022/09/28 08:42:40;;;;;;;2.38;1.92;;;;;;;12.99;75.95;97845.03;4895137;29;20642;-78
2022/09/28 08:45:23;;;;;;;4.80;2.25;;;;;;;13.03;75.76;97854.25;4894208;29;20267;-78
2022/09/28 08:51:46;;;;;;;3.47;2.08;;;;;;;13.05;75.88;97847.03;4884713;29;20214;-79
2022/09/28 08:54:41;;;;;;;6.32;2.50;;;;;;;13.07;75.94;97855.59;4923483;29;20584;-79
2022/09/28 08:57:21;;;;;;;4.40;3.65;;;;;;;13.12;75.80;97859.56;4932215;28;20205;-78
2022/09/28 08:59:50;;;;;;;2.28;2.08;;;;;;;13.14;76.02;97861.06;4929445;28;20253;-81
2022/09/28 09:02:26;;;;;;;4.50;2.25;;;;;;;13.17;76.02;97865.19;4939496;28;20789;-78
2022/09/28 09:04:56;;;;;;;2.22;2.03;;;;;;;13.18;75.97;97848.41;4926060;29;20322;-79
2022/09/28 09:07:30;;;;;;;1.40;1.30;;;;;;;13.20;75.87;97854.34;4923268;29;20233;-79
2022/09/28 09:10:20;;;;;;;2.35;1.60;;;;;;;13.22;75.83;97865.56;4945762;28;20264;-80
2022/09/28 09:13:12;;;;;;;1.83;1.25;;;;;;;13.24;75.58;97868.88;4074143;28;25089737;-79
2022/09/28 09:16:01;;;;;;;2.35;1.63;;;;;;;13.24;75.61;97861.78;4908382;29;20207;-79
2022/09/28 09:18:52;;;;;;;3.42;1.95;;;;;;;13.28;75.82;97864.97;4885152;29;20287;-78
2022/09/28 09:21:36;;;;;;;1.80;1.70;;;;;;;13.35;75.77;97867.81;4884120;29;20214;-80
2022/09/28 09:24:17;;;;;;;6.88;2.20;;;;;;;13.41;75.63;97868.00;4888565;29;20293;-80
2022/09/28 09:26:44;;;;;;;3.08;1.40;;;;;;;13.47;75.65;97877.94;4909365;29;20711;-82
2022/09/28 09:29:17;;;;;;;3.28;1.65;;;;;;;13.52;75.33;97876.59;4897360;29;20312;-80
2022/09/28 09:32:11;;;;;;;2.95;2.65;;;;;;;13.55;75.38;97885.03;4895320;29;20206;-81
2022/09/28 09:34:49;;;;;;;4.70;2.20;;;;;;;13.58;74.90;97887.34;4889833;29;20564;-81
2022/09/28 09:37:56;;;;;;;3.20;1.65;;;;;;;13.56;74.91;97877.97;4895096;29;20510;-79
2022/09/28 09:40:49;;;;;;;4.47;1.52;;;;;;;13.54;74.73;97879.91;4895026;29;20296;-82
2022/09/28 09:43:48;;;;;;;8.05;2.20;;;;;;;13.56;74.57;97886.69;4896772;29;20340;-82
2022/09/28 09:46:29;;;;;;;5.85;1.85;;;;;;;13.59;74.20;97881.09;4900067;29;20207;-79
2022/09/28 09:49:33;;;;;;;4.10;1.83;;;;;;;13.58;74.18;97886.50;4896534;29;20261;-83
2022/09/28 09:52:13;;;;;;;2.20;1.67;;;;;;;13.58;74.18;97887.34;4902192;29;20229;-82
2022/09/28 09:54:57;;;;;;;4.28;1.60;;;;;;;13.60;74.15;97890.66;4896796;29;20202;-84
2022/09/28 09:57:39;;;;;;;4.18;1.77;;;;;;;13.60;73.84;97881.91;4898034;29;20261;-78
2022/09/28 10:00:16;;;;;;;3.20;1.50;;;;;;;13.58;73.94;97881.25;4898381;29;20875;-78
2022/09/28 10:02:52;;;;;;;3.17;1.75;;;;;;;13.56;74.09;97885.88;4895941;29;20575;-79
2022/09/28 10:05:33;;;;;;;1.65;1.10;;;;;;;13.56;73.77;97875.31;4917139;29;20668;-78
2022/09/28 10:08:07;;;;;;;1.83;1.42;;;;;;;13.56;73.96;97877.97;4896472;29;20742;-77
2022/09/28 10:10:37;;;;;;;1.20;1.02;;;;;;;13.57;73.78;97882.25;4902690;29;20242;-78
2022/09/28 10:13:08;;;;;;;3.05;1.10;;;;;;;13.58;73.66;97894.44;4896874;29;20213;-83
2022/09/28 10:15:35;;;;;;;1.92;1.20;;;;;;;13.57;73.50;97893.59;4897915;29;20209;-81
2022/09/28 10:18:27;;;;;;;1.20;1.10;;;;;;;13.52;73.65;97889.78;4898962;29;20378;-81
2022/09/28 10:21:17;;;;;;;1.48;1.20;;;;;;;13.50;73.68;97888.16;4901984;29;20213;-77
2022/09/28 10:23:55;;;;;;;1.23;1.00;;;;;;;13.51;73.63;97883.69;4903971;29;20716;-80
2022/09/28 10:26:31;;;;;;;2.00;1.15;;;;;;;13.48;73.39;97879.56;4897633;29;21175;-80
2022/09/28 10:29:00;;;;;;;1.50;0.95;;;;;;;13.44;73.57;97875.56;4901816;29;20286;-83
2022/09/28 10:31:33;;;;;;;1.30;1.15;;;;;;;13.43;73.43;97879.22;4896492;29;20211;-81
2022/09/28 10:33:58;;;;;;;2.23;1.30;;;;;;;13.38;73.04;97876.22;4899040;29;20575;-82
2022/09/28 10:36:25;;;;;;;1.77;1.03;;;;;;;13.34;73.47;97877.53;4912771;28;20450;-79
2022/09/28 10:38:52;;;;;;;2.53;1.20;;;;;;;13.32;73.30;97871.59;4915076;29;20223;-78
2022/09/28 10:41:25;;;;;;;1.45;1.00;;;;;;;13.35;73.27;97888.91;4900791;29;20210;-82
2022/09/28 10:44:09;;;;;;;1.38;1.10;;;;;;;13.39;72.98;97874.41;4896540;29;20353;-84
2022/09/28 10:47:01;;;;;;;3.58;1.10;;;;;;;13.44;72.71;97874.75;4899428;29;20613;-82
2022/09/28 10:49:40;;;;;;;1.20;1.10;;;;;;;13.46;72.70;97875.44;4896894;29;20437;-81
2022/09/28 10:52:40;;;;;;;1.98;1.20;;;;;;;13.44;72.51;97872.94;4910156;29;20198;-79
2022/09/28 10:55:19;;;;;;;1.25;1.00;;;;;;;13.46;72.49;97870.97;4917252;28;20202;-78
2022/09/28 10:57:45;;;;;;;1.40;1.23;;;;;;;13.49;72.26;97873.28;4897023;29;20198;-80
2022/09/28 11:00:33;;;;;;;1.73;1.55;;;;;;;13.53;72.46;97875.59;4900136;29;20230;-78
2022/09/28 11:03:27;;;;;;;1.63;1.27;;;;;;;13.55;72.32;97868.38;4897067;29;20590;-84
2022/09/28 11:06:05;;;;;;;4.20;1.00;;;;;;;13.57;72.02;97863.78;4895656;29;20216;-83
2022/09/28 11:08:41;;;;;;;5.70;2.22;;;;;;;13.56;71.97;97865.59;4898977;29;20670;-78
2022/09/28 11:11:11;;;;;;;2.25;1.23;;;;;;;13.58;72.17;97868.06;4915016;28;20206;-81
2022/09/28 11:13:52;;;;;;;4.18;1.88;;;;;;;13.61;72.16;97876.50;4896386;29;20202;-81
2022/09/28 11:16:30;;;;;;;1.90;1.20;;;;;;;13.64;72.12;97870.91;4913996;28;20214;-78
2022/09/28 11:19:01;;;;;;;6.88;2.35;;;;;;;13.68;72.23;97874.03;4913065;28;20238;-81
2022/09/28 11:21:31;;;;;;;4.22;1.95;;;;;;;13.70;72.19;97874.69;4901363;29;20520;-78
2022/09/28 11:24:14;;;;;;;2.30;2.08;;;;;;;13.70;72.03;97858.88;4896870;29;20229;-80
2022/09/28 11:27:18;;;;;;;1.30;1.20;;;;;;;13.70;71.29;97861.50;4897691;29;20248;-78
2022/09/28 11:29:54;;;;;;;2.55;1.45;;;;;;;13.67;71.52;97861.84;4899439;29;20227;-83
2022/09/28 11:32:28;;;;;;;6.10;2.40;;;;;;;13.67;71.62;97864.47;4898831;29;20285;-82
2022/09/28 11:35:29;;;;;;;4.20;3.78;;;;;;;13.68;71.64;97863.47;4920153;28;20225;-83
2022/09/28 11:38:17;;;;;;;4.80;3.10;;;;;;;13.70;71.77;97861.50;4900439;29;20289;-83
2022/09/28 11:41:12;;;;;;;5.15;1.80;;;;;;;13.71;71.79;97863.97;4898041;29;20725;-82
2022/09/28 11:44:00;;;;;;;3.25;1.63;;;;;;;13.74;71.72;97860.19;4898788;29;21181;-81
2022/09/28 11:46:57;;;;;;;3.78;2.30;;;;;;;13.76;71.69;97858.22;4901344;29;20670;-83
2022/09/28 11:49:32;;;;;;;2.83;1.35;;;;;;;13.81;71.62;97863.84;4900100;29;20939;-80
2022/09/28 11:52:04;;;;;;;1.92;1.33;;;;;;;13.80;71.58;97859.56;4899128;29;20205;-78
2022/09/28 11:54:39;;;;;;;2.17;1.52;;;;;;;13.77;71.76;97846.69;4898012;29;20222;-81
2022/09/28 11:57:10;;;;;;;3.20;2.00;;;;;;;13.77;71.99;97856.41;4871009;29;20738;-83
2022/09/28 11:59:56;;;;;;;9.02;8.13;;;;;;;13.75;72.09;97853.94;4884048;29;20332;-78
2022/09/28 12:02:28;;;;;;;4.82;2.35;;;;;;;13.72;71.93;97859.53;4883126;29;20595;-82
2022/09/28 12:05:19;;;;;;;2.85;1.80;;;;;;;13.71;72.11;97852.59;4883044;29;20719;-82
2022/09/28 12:07:54;;;;;;;4.20;2.60;;;;;;;13.71;72.10;97847.31;4894629;29;20285;-79
2022/09/28 12:10:58;;;;;;;4.13;1.58;;;;;;;13.70;72.21;97856.22;4880097;29;20382;-82
2022/09/28 12:13:47;;;;;;;2.45;1.80;;;;;;;13.69;72.30;97854.56;4882360;29;20213;-80
2022/09/28 12:16:15;;;;;;;1.75;1.30;;;;;;;13.70;72.40;97856.22;4879625;29;20240;-82